createdAt,value
2022-09-09T00:02:14.879Z,99928.31
2022-09-09T00:04:44.873Z,99932.91
2022-09-09T00:07:19.974Z,99925.00
2022-09-09T00:09:51.752Z,99920.78
2022-09-09T00:12:29.011Z,99911.31
2022-09-09T00:15:00.379Z,99913.13
2022-09-09T00:17:38.322Z,99917.72
2022-09-09T00:20:15.366Z,99916.16
2022-09-09T00:22:51.426Z,99911.78
2022-09-09T00:25:27.697Z,99911.91
2022-09-09T00:27:58.324Z,99909.13
2022-09-09T00:30:29.215Z,99912.13
2022-09-09T00:33:05.375Z,99911.19
2022-09-09T00:35:37.755Z,99911.91
2022-09-09T00:38:14.050Z,99918.91
2022-09-09T00:40:50.585Z,99909.13
2022-09-09T00:43:33.725Z,99907.44
2022-09-09T00:46:34.604Z,99903.09
2022-09-09T00:49:13.043Z,99899.56
2022-09-09T00:51:51.291Z,99904.88
2022-09-09T00:54:30.051Z,99904.16
2022-09-09T00:57:11.929Z,99909.59
2022-09-09T00:59:49.450Z,99905.34
2022-09-09T01:02:30.392Z,99908.84
2022-09-09T01:05:11.344Z,99909.94
2022-09-09T01:07:40.889Z,99909.09
2022-09-09T01:10:15.905Z,99906.66
2022-09-09T01:12:46.746Z,99902.41
2022-09-09T01:15:25.642Z,99904.97
2022-09-09T01:18:02.331Z,99897.09
2022-09-09T01:20:42.374Z,99899.88
2022-09-09T01:23:35.232Z,99893.72
2022-09-09T01:26:22.520Z,99893.59
2022-09-09T01:28:53.960Z,99898.19
2022-09-09T01:31:31.600Z,99892.88
2022-09-09T01:34:01.420Z,99902.31
2022-09-09T01:36:36.230Z,99907.41
2022-09-09T01:39:09.535Z,99896.66
2022-09-09T01:41:42.556Z,99891.09
2022-09-09T01:44:15.068Z,99890.03
2022-09-09T01:46:47.790Z,99892.56
2022-09-09T01:49:20.847Z,99890.75
2022-09-09T01:51:54.044Z,99889.78
2022-09-09T01:54:33.537Z,99886.28
2022-09-09T01:57:14.309Z,99890.88
2022-09-09T01:59:53.468Z,99895.34
2022-09-09T02:02:27.352Z,99888.09
2022-09-09T02:05:21.446Z,99889.91
2022-09-09T02:07:54.256Z,99886.41
2022-09-09T02:10:43.023Z,99881.94
2022-09-09T02:13:22.793Z,99887.38
2022-09-09T02:15:56.874Z,99891.97
2022-09-09T02:18:31.000Z,99887.50
2022-09-09T02:21:01.600Z,99884.72
2022-09-09T02:23:32.588Z,99889.31
2022-09-09T02:26:05.095Z,99888.44
2022-09-09T02:28:38.826Z,99888.34
2022-09-09T02:31:10.257Z,99896.19
2022-09-09T02:33:46.538Z,99887.25
2022-09-09T02:36:18.216Z,99889.78
2022-09-09T02:38:51.512Z,99891.34
2022-09-09T02:41:22.750Z,99885.94
2022-09-09T02:43:55.760Z,99892.72
2022-09-09T02:46:36.319Z,99891.75
2022-09-09T02:49:10.126Z,99893.56
2022-09-09T02:51:50.462Z,99884.63
2022-09-09T02:54:26.028Z,99889.09
2022-09-09T02:56:57.483Z,99881.97
2022-09-09T02:59:38.870Z,99882.72
2022-09-09T03:02:08.582Z,99893.44
2022-09-09T03:04:38.789Z,99888.25
2022-09-09T03:07:08.549Z,99875.69
2022-09-09T03:09:38.388Z,99874.84
2022-09-09T03:12:08.231Z,99874.97
2022-09-09T03:14:41.186Z,99883.66
2022-09-09T03:17:10.936Z,99867.81
2022-09-09T03:19:48.252Z,99873.16
2022-09-09T03:22:17.903Z,99872.19
2022-09-09T03:24:48.527Z,99879.44
2022-09-09T03:27:20.102Z,99869.75
2022-09-09T03:29:53.041Z,99868.91
2022-09-09T03:32:26.732Z,99875.94
2022-09-09T03:34:57.798Z,99872.66
2022-09-09T03:37:28.139Z,99866.59
2022-09-09T03:39:58.123Z,99868.41
2022-09-09T03:42:28.278Z,99879.78
2022-09-09T03:45:01.800Z,99870.97
2022-09-09T03:47:32.450Z,99875.41
2022-09-09T03:50:10.480Z,99875.31
2022-09-09T03:52:44.735Z,99873.38
2022-09-09T03:55:21.091Z,99864.44
2022-09-09T03:57:50.682Z,99864.44
2022-09-09T04:00:24.002Z,99865.03
2022-09-09T04:02:57.773Z,99867.81
2022-09-09T04:05:28.205Z,99872.19
2022-09-09T04:07:57.809Z,99864.19
2022-09-09T04:10:27.987Z,99871.13
2022-09-09T04:12:58.810Z,99864.13
2022-09-09T04:15:31.228Z,99866.66
2022-09-09T04:18:01.623Z,99867.63
2022-09-09T04:20:31.207Z,99873.91
2022-09-09T04:23:01.007Z,99864.19
2022-09-09T04:25:30.800Z,99866.78
2022-09-09T04:28:00.946Z,99868.59
2022-09-09T04:30:35.873Z,99875.69
2022-09-09T04:33:06.231Z,99870.38
2022-09-09T04:35:36.020Z,99864.19
2022-09-09T04:38:06.489Z,99873.16
2022-09-09T04:40:36.350Z,99868.91
2022-09-09T04:43:06.844Z,99873.38
2022-09-09T04:45:41.441Z,99874.97
2022-09-09T04:48:12.770Z,99875.19
2022-09-09T04:50:42.510Z,99874.09
2022-09-09T04:53:14.824Z,99874.09
2022-09-09T04:55:45.074Z,99866.97
2022-09-09T04:58:14.731Z,99867.81
2022-09-09T05:00:47.419Z,99868.66
2022-09-09T05:03:17.107Z,99874.09
2022-09-09T05:05:47.245Z,99873.16
2022-09-09T05:08:17.664Z,99870.16
2022-09-09T05:10:47.667Z,99875.47
2022-09-09T05:13:17.263Z,99875.13
2022-09-09T05:15:55.489Z,99871.53
2022-09-09T05:18:25.991Z,99875.75
2022-09-09T05:20:56.312Z,99867.78
2022-09-09T05:23:26.870Z,99869.22
2022-09-09T05:26:00.257Z,99864.75
2022-09-09T05:28:31.633Z,99868.16
2022-09-09T05:31:05.822Z,99866.22
2022-09-09T05:33:37.881Z,99872.28
2022-09-09T05:36:09.625Z,99867.59
2022-09-09T05:38:40.483Z,99859.47
2022-09-09T05:41:12.099Z,99857.66
2022-09-09T05:43:43.260Z,99867.22
2022-09-09T05:46:17.289Z,99854.63
2022-09-09T05:48:51.649Z,99859.94
2022-09-09T05:51:25.116Z,99864.22
2022-09-09T05:53:56.150Z,99860.44
2022-09-09T05:56:27.954Z,99868.94
2022-09-09T05:59:01.102Z,99870.63
2022-09-09T06:01:35.785Z,99869.53
2022-09-09T06:04:06.519Z,99881.84
2022-09-09T06:06:40.190Z,99881.75
2022-09-09T06:09:16.340Z,99877.88
2022-09-09T06:11:47.003Z,99876.91
2022-09-09T06:14:18.975Z,99888.28
2022-09-09T06:16:53.328Z,99881.03
2022-09-09T06:19:27.407Z,99879.81
2022-09-09T06:21:59.571Z,99886.00
2022-09-09T06:24:31.277Z,99884.16
2022-09-09T06:27:01.760Z,99885.88
2022-09-09T06:29:35.663Z,99878.72
2022-09-09T06:32:09.640Z,99886.63
2022-09-09T06:34:39.344Z,99881.16
2022-09-09T06:37:09.711Z,99882.97
2022-09-09T06:39:44.513Z,99879.22
2022-09-09T06:42:16.656Z,99883.44
2022-09-09T06:45:11.261Z,99884.28
2022-09-09T06:47:51.150Z,99888.78
2022-09-09T06:50:21.920Z,99894.47
2022-09-09T06:52:52.688Z,99888.06
2022-09-09T06:55:22.370Z,99892.41
2022-09-09T06:57:52.885Z,99892.88
2022-09-09T07:00:26.026Z,99891.91
2022-09-09T07:02:58.472Z,99896.88
2022-09-09T07:05:28.072Z,99895.91
2022-09-09T07:07:57.841Z,99894.81
2022-09-09T07:10:28.175Z,99897.38
2022-09-09T07:12:58.395Z,99904.13
2022-09-09T07:15:29.395Z,99906.66
2022-09-09T07:18:04.947Z,99909.38
2022-09-09T07:20:34.752Z,99899.44
2022-09-09T07:23:04.768Z,99911.56
2022-09-09T07:25:34.540Z,99910.81
2022-09-09T07:28:04.561Z,99908.16
2022-09-09T07:30:34.129Z,99908.16
2022-09-09T07:33:06.421Z,99909.84
2022-09-09T07:35:37.925Z,99911.44
2022-09-09T07:38:08.176Z,99915.53
2022-09-09T07:40:39.736Z,99912.63
2022-09-09T07:43:10.577Z,99913.09
2022-09-09T07:45:43.024Z,99912.00
2022-09-09T07:48:16.646Z,99920.59
2022-09-09T07:50:46.220Z,99923.84
2022-09-09T07:53:15.734Z,99919.13
2022-09-09T07:55:45.437Z,99922.13
2022-09-09T07:58:15.195Z,99920.41
2022-09-09T08:00:44.977Z,99920.75
2022-09-09T08:03:18.179Z,99915.78
2022-09-09T08:05:47.772Z,99931.50
2022-09-09T08:08:17.616Z,99930.28
2022-09-09T08:10:47.211Z,99918.38
2022-09-09T08:13:18.879Z,99925.47
2022-09-09T08:15:51.295Z,99930.91
2022-09-09T08:18:24.771Z,99926.06
2022-09-09T08:20:54.449Z,99928.47
2022-09-09T08:23:24.324Z,99923.00
2022-09-09T08:25:54.033Z,99926.66
2022-09-09T08:28:23.632Z,99919.56
2022-09-09T08:30:54.212Z,99923.13
2022-09-09T08:33:26.784Z,99918.31
2022-09-09T08:35:57.103Z,99929.88
2022-09-09T08:38:27.171Z,99930.66
2022-09-09T08:41:00.634Z,99930.03
2022-09-09T08:43:33.268Z,99926.41
2022-09-09T08:46:09.716Z,99925.19
2022-09-09T08:48:50.923Z,99926.09
2022-09-09T08:51:20.548Z,99935.78
2022-09-09T08:53:59.034Z,99935.47
2022-09-09T08:56:31.275Z,99933.53
2022-09-09T08:59:04.356Z,99932.94
2022-09-09T09:01:48.567Z,99937.09
2022-09-09T09:04:37.822Z,99941.34
2022-09-09T09:07:14.952Z,99935.94
2022-09-09T09:09:59.545Z,99936.50
2022-09-09T09:12:32.680Z,99951.69
2022-09-09T09:15:03.294Z,99936.50
2022-09-09T09:17:41.406Z,99943.41
2022-09-09T09:20:18.755Z,99935.69
2022-09-09T09:22:53.013Z,99943.44
2022-09-09T09:25:24.934Z,99931.50
2022-09-09T09:28:06.153Z,99936.06
2022-09-09T09:30:42.717Z,99931.03
2022-09-09T09:33:19.656Z,99922.94
2022-09-09T09:35:52.711Z,99926.03
2022-09-09T09:41:15.747Z,99941.78
2022-09-09T09:43:46.216Z,99936.81
2022-09-09T09:46:24.834Z,99936.28
2022-09-09T09:49:03.230Z,99935.97
2022-09-09T09:51:37.571Z,99944.44
2022-09-09T09:54:14.255Z,99938.38
2022-09-09T09:56:45.046Z,99940.06
2022-09-09T09:59:38.682Z,99949.59
2022-09-09T10:02:20.209Z,99947.47
2022-09-09T10:05:05.151Z,99953.19
2022-09-09T10:07:39.893Z,99943.88
2022-09-09T10:10:13.585Z,99939.84
2022-09-09T10:12:51.773Z,99956.34
2022-09-09T10:15:34.059Z,99943.47
2022-09-09T10:18:14.330Z,99950.81
2022-09-09T10:20:49.735Z,99939.88
2022-09-09T10:23:32.869Z,99928.88
2022-09-09T10:26:14.950Z,99935.25
2022-09-09T10:29:03.047Z,99928.66
2022-09-09T10:31:40.176Z,99929.78
2022-09-09T10:34:19.560Z,99929.63
2022-09-09T10:36:52.075Z,99938.50
2022-09-09T10:39:40.513Z,99929.50
2022-09-09T10:42:14.055Z,99924.97
2022-09-09T10:44:54.216Z,99921.47
2022-09-09T10:47:42.672Z,99904.16
2022-09-09T10:50:57.130Z,99914.16
2022-09-09T10:53:28.372Z,99912.03
2022-09-09T10:56:03.821Z,99911.03
2022-09-09T10:58:37.585Z,99918.22
2022-09-09T11:01:15.181Z,99909.19
2022-09-09T11:03:45.397Z,99911.31
2022-09-09T11:06:18.614Z,99900.75
2022-09-09T11:08:53.755Z,99906.22
2022-09-09T11:11:31.411Z,99908.63
2022-09-09T11:14:05.121Z,99900.88
2022-09-09T11:16:38.194Z,99896.25
2022-09-09T11:19:13.855Z,99905.53
2022-09-09T11:21:47.311Z,99908.06
2022-09-09T11:24:20.177Z,99904.41
2022-09-09T11:26:57.992Z,99910.31
2022-09-09T11:29:56.078Z,99894.84
2022-09-09T11:32:51.768Z,99906.97
2022-09-09T11:35:34.419Z,99899.78
2022-09-09T11:38:23.615Z,99899.06
2022-09-09T11:41:00.193Z,99889.34
2022-09-09T11:43:36.327Z,99890.88
2022-09-09T11:46:06.586Z,99891.16
2022-09-09T11:48:38.713Z,99900.44
2022-09-09T11:51:16.626Z,99893.69
2022-09-09T11:53:58.330Z,99903.56
2022-09-09T11:56:30.878Z,99911.88
2022-09-09T11:59:06.550Z,99910.19
2022-09-09T12:01:43.914Z,99918.25
2022-09-09T12:04:26.482Z,99922.69
2022-09-09T12:06:58.311Z,99921.75
2022-09-09T12:09:33.556Z,99922.97
2022-09-09T12:12:10.946Z,99910.38
2022-09-09T12:15:00.216Z,99912.88
2022-09-09T12:17:31.627Z,99927.22
2022-09-09T12:20:12.800Z,99921.63
2022-09-09T12:22:49.512Z,99908.94
2022-09-09T12:25:25.319Z,99906.53
2022-09-09T12:28:05.969Z,99909.66
2022-09-09T12:30:44.379Z,99905.16
2022-09-09T12:33:17.011Z,99915.28
2022-09-09T12:35:48.928Z,99921.63
2022-09-09T12:38:21.549Z,99941.84
2022-09-09T12:40:58.940Z,99930.09
2022-09-09T12:43:30.129Z,99935.38
2022-09-09T12:46:05.485Z,99932.16
2022-09-09T12:48:38.691Z,99922.44
2022-09-09T12:51:11.990Z,99920.88
2022-09-09T12:53:41.623Z,99919.47
2022-09-09T12:56:12.748Z,99911.19
2022-09-09T12:58:42.940Z,99904.16
2022-09-09T13:01:26.307Z,99901.06
2022-09-09T13:03:56.670Z,99896.97
2022-09-09T13:06:29.287Z,99899.22
2022-09-09T13:09:01.192Z,99885.81
2022-09-09T13:11:33.333Z,99884.56
2022-09-09T13:14:03.464Z,99887.41
2022-09-09T13:16:42.752Z,99876.53
2022-09-09T13:19:17.971Z,99877.22
2022-09-09T13:21:47.647Z,99879.25
2022-09-09T13:24:30.400Z,99879.38
2022-09-09T13:27:01.520Z,99883.63
2022-09-09T13:29:31.544Z,99890.47
2022-09-09T13:32:10.813Z,99901.59
2022-09-09T13:34:40.837Z,99923.09
2022-09-09T13:37:21.221Z,99951.75
2022-09-09T13:39:55.350Z,99918.00
2022-09-09T13:42:30.228Z,99919.41
2022-09-09T13:45:00.929Z,99910.94
2022-09-09T13:47:38.854Z,99909.00
2022-09-09T13:50:23.526Z,99905.34
2022-09-09T13:52:54.121Z,99912.50
2022-09-09T13:55:25.029Z,99905.59
2022-09-09T13:57:55.416Z,99908.81
2022-09-09T14:00:25.650Z,99904.03
2022-09-09T14:02:58.616Z,99904.50
2022-09-09T14:05:28.364Z,99892.38
2022-09-09T14:07:57.943Z,99886.88
2022-09-09T14:10:27.479Z,99876.50
2022-09-09T14:12:57.136Z,99867.81
2022-09-09T14:15:28.117Z,99874.56
2022-09-09T14:18:00.268Z,99873.06
2022-09-09T14:20:29.922Z,99874.34
2022-09-09T14:23:03.332Z,99873.22
2022-09-09T14:25:34.490Z,99873.66
2022-09-09T14:28:04.546Z,99868.47
2022-09-09T14:30:34.190Z,99878.00
2022-09-09T14:33:06.579Z,99878.28
2022-09-09T14:35:37.181Z,99878.00
2022-09-09T14:38:07.725Z,99889.69
2022-09-09T14:40:38.478Z,99895.56
2022-09-09T14:43:08.232Z,99887.47
2022-09-09T14:45:40.087Z,99877.06
2022-09-09T14:48:12.580Z,99882.84
2022-09-09T14:50:42.174Z,99870.06
2022-09-09T14:53:12.355Z,99865.41
2022-09-09T14:55:42.313Z,99871.16
2022-09-09T14:58:11.861Z,99861.16
2022-09-09T15:00:42.265Z,99872.41
2022-09-09T15:03:14.420Z,99903.34
2022-09-09T15:05:43.976Z,99931.41
2022-09-09T15:08:13.641Z,99939.09
2022-09-09T15:10:43.653Z,99939.16
2022-09-09T15:13:13.259Z,99940.44
2022-09-09T15:15:43.378Z,99941.19
2022-09-09T15:18:16.928Z,99950.75
2022-09-09T15:20:48.708Z,99943.78
2022-09-09T15:23:18.608Z,99949.16
2022-09-09T15:25:56.080Z,99944.69
2022-09-09T15:28:26.486Z,99948.97
2022-09-09T15:30:57.774Z,99955.53
2022-09-09T15:33:30.012Z,99955.81
2022-09-09T15:35:59.593Z,99954.50
2022-09-09T15:38:29.151Z,99948.84
2022-09-09T15:40:59.525Z,99941.78
2022-09-09T15:43:29.116Z,99938.84
2022-09-09T15:46:03.643Z,99932.38
2022-09-09T15:51:43.850Z,99912.84
2022-09-09T15:54:16.178Z,99911.03
2022-09-09T15:56:46.231Z,99917.22
2022-09-09T15:59:15.917Z,99910.56
2022-09-09T16:01:45.804Z,99904.03
2022-09-09T16:04:24.099Z,99907.03
2022-09-09T16:06:54.602Z,99903.78
2022-09-09T16:09:24.706Z,99899.56
2022-09-09T16:11:54.987Z,99906.69
2022-09-09T16:14:25.792Z,99901.59
2022-09-09T16:16:56.600Z,99915.38
2022-09-09T16:19:28.694Z,99908.38
2022-09-09T16:21:58.314Z,99903.88
2022-09-09T16:24:28.179Z,99913.81
2022-09-09T16:26:58.420Z,99918.28
2022-09-09T16:29:28.536Z,99937.13
2022-09-09T16:32:03.578Z,99946.94
2022-09-09T16:34:36.463Z,99932.56
2022-09-09T16:37:06.044Z,99925.19
2022-09-09T16:39:35.607Z,99921.69
2022-09-09T16:42:05.735Z,99921.31
2022-09-09T16:44:35.260Z,99921.22
2022-09-09T16:47:05.109Z,99926.28
2022-09-09T16:49:38.398Z,99926.41
2022-09-09T16:52:08.112Z,99925.31
2022-09-09T16:54:37.632Z,99924.72
2022-09-09T16:57:07.718Z,99929.44
2022-09-09T16:59:37.299Z,99926.66
2022-09-09T17:02:08.300Z,99925.56
2022-09-09T17:04:41.823Z,99922.88
2022-09-09T17:07:11.385Z,99919.63
2022-09-09T17:09:41.020Z,99934.63
2022-09-09T17:12:12.990Z,99931.47
2022-09-09T17:14:42.521Z,99926.16
2022-09-09T17:17:30.676Z,99922.19
2022-09-09T17:20:04.279Z,99929.44
2022-09-09T17:22:33.859Z,99926.88
2022-09-09T17:25:04.294Z,99927.97
2022-09-09T17:27:34.228Z,99929.66
2022-09-09T17:30:03.982Z,99939.00
2022-09-09T17:32:36.636Z,99924.72
2022-09-09T17:35:09.709Z,99927.38
2022-09-09T17:37:39.261Z,99922.06
2022-09-09T17:40:10.188Z,99919.03
2022-09-09T17:42:41.519Z,99923.50
2022-09-09T17:45:12.287Z,99932.56
2022-09-09T17:47:43.868Z,99935.13
2022-09-09T17:50:16.612Z,99931.84
2022-09-09T17:52:46.221Z,99929.81
2022-09-09T17:55:18.138Z,99936.06
2022-09-09T17:57:47.942Z,99932.47
2022-09-09T18:00:18.287Z,99942.16
2022-09-09T18:02:48.574Z,99934.25
2022-09-09T18:05:21.392Z,99935.00
2022-09-09T18:07:51.221Z,99942.88
2022-09-09T18:10:20.840Z,99942.16
2022-09-09T18:12:50.397Z,99949.38
2022-09-09T18:15:33.468Z,99960.78
2022-09-09T18:18:09.145Z,99953.88
2022-09-09T18:20:41.250Z,99961.13
2022-09-09T18:23:10.874Z,99958.47
2022-09-09T18:25:41.728Z,99949.63
2022-09-09T18:28:11.738Z,99958.22
2022-09-09T18:30:42.861Z,99959.44
2022-09-09T18:33:12.442Z,99970.94
2022-09-09T18:35:46.703Z,99965.59
2022-09-09T18:38:17.338Z,99968.84
2022-09-09T18:40:46.888Z,99978.78
2022-09-09T18:43:17.624Z,99973.47
2022-09-09T18:45:47.128Z,99976.13
2022-09-09T18:48:16.960Z,99978.78
2022-09-09T18:50:49.345Z,99980.84
2022-09-09T18:53:18.876Z,99980.22
2022-09-09T18:55:48.418Z,99972.25
2022-09-09T18:58:18.013Z,99978.53
2022-09-09T19:00:49.432Z,99988.47
2022-09-09T19:03:19.014Z,99991.97
2022-09-09T19:05:51.411Z,99995.72
2022-09-09T19:08:21.111Z,99987.72
2022-09-09T19:10:51.755Z,99994.13
2022-09-09T19:13:21.307Z,99985.28
2022-09-09T19:15:51.665Z,99981.91
2022-09-09T19:18:21.242Z,99985.78
2022-09-09T19:20:53.475Z,99991.09
2022-09-09T19:23:23.440Z,99993.84
2022-09-09T19:25:53.210Z,99987.81
2022-09-09T19:28:22.755Z,99994.69
2022-09-09T19:30:53.426Z,99995.66
2022-09-09T19:33:23.185Z,100001.13
2022-09-09T19:36:02.529Z,100008.25
2022-09-09T19:38:32.489Z,100010.19
2022-09-09T19:41:06.727Z,100010.91
2022-09-09T19:43:36.841Z,100024.53
2022-09-09T19:46:07.756Z,100016.22
2022-09-09T19:48:40.800Z,100015.38
2022-09-09T19:51:14.664Z,100018.16
2022-09-09T19:53:46.333Z,100016.47
2022-09-09T19:56:16.105Z,100025.19
2022-09-09T19:58:45.797Z,100026.16
2022-09-09T20:01:17.569Z,100018.03
2022-09-09T20:03:49.991Z,100016.22
2022-09-09T20:06:23.649Z,100023.97
2022-09-09T20:08:53.792Z,100024.09
2022-09-09T20:11:23.756Z,100026.75
2022-09-09T20:13:53.328Z,100034.59
2022-09-09T20:16:24.869Z,100031.94
2022-09-09T20:18:56.530Z,100030.25
2022-09-09T20:21:30.306Z,100037.50
2022-09-09T20:23:59.925Z,100040.19
2022-09-09T20:26:33.569Z,100037.50
2022-09-09T20:29:04.941Z,100040.19
2022-09-09T20:31:36.356Z,100043.69
2022-09-09T20:34:07.580Z,100050.69
2022-09-09T20:36:41.282Z,100051.53
2022-09-09T20:39:17.210Z,100051.78
2022-09-09T20:41:47.682Z,100052.63
2022-09-09T20:44:18.519Z,100054.69
2022-09-09T20:46:50.528Z,100059.25
2022-09-09T20:49:22.473Z,100060.09
2022-09-09T20:51:55.828Z,100060.94
2022-09-09T20:54:28.043Z,100060.22
2022-09-09T20:56:58.107Z,100061.06
2022-09-09T20:59:30.692Z,100066.25
2022-09-09T21:02:01.149Z,100060.63
2022-09-09T21:04:31.317Z,100066.06
2022-09-09T21:07:04.345Z,100058.19
2022-09-09T21:09:33.957Z,100067.03
2022-09-09T21:12:03.671Z,100056.13
2022-09-09T21:14:33.356Z,100056.13
2022-09-09T21:17:03.192Z,100051.78
2022-09-09T21:19:32.730Z,100051.91
2022-09-09T21:22:04.850Z,100047.44
2022-09-09T21:24:34.417Z,100059.66
2022-09-09T21:27:04.035Z,100061.59
2022-09-09T21:29:33.792Z,100058.81
2022-09-09T21:32:03.634Z,100062.31
2022-09-09T21:34:33.257Z,100056.03
2022-09-09T21:37:05.545Z,100060.50
2022-09-09T21:39:35.149Z,100059.75
2022-09-09T21:42:04.752Z,100061.47
2022-09-09T21:44:34.341Z,100061.47
2022-09-09T21:47:03.934Z,100058.91
2022-09-09T21:49:33.508Z,100060.50
2022-09-09T21:52:05.843Z,100061.06
2022-09-09T21:54:40.208Z,100058.06
2022-09-09T21:57:09.850Z,100057.34
2022-09-09T21:59:39.390Z,100060.09
2022-09-09T22:05:13.147Z,100058.41
2022-09-09T22:07:45.456Z,100056.72
2022-09-09T22:10:15.071Z,100057.03
2022-09-09T22:12:44.688Z,100068.66
2022-09-09T22:15:14.223Z,100062.59
2022-09-09T22:17:43.883Z,100067.69
2022-09-09T22:20:14.564Z,100067.91
2022-09-09T22:22:46.708Z,100062.00
2022-09-09T22:25:16.510Z,100064.00
2022-09-09T22:27:46.151Z,100072.72
2022-09-09T22:30:16.170Z,100061.03
2022-09-09T22:32:45.777Z,100064.53
2022-09-09T22:35:15.648Z,100056.56
2022-09-09T22:37:47.853Z,100053.06
2022-09-09T22:40:17.606Z,100057.41
2022-09-09T22:42:51.935Z,100052.09
2022-09-09T22:45:22.768Z,100062.09
2022-09-09T22:47:52.336Z,100062.97
2022-09-09T22:50:21.888Z,100052.53
2022-09-09T22:52:54.392Z,100058.94
2022-09-09T22:55:24.000Z,100064.25
2022-09-09T22:57:53.585Z,100066.06
2022-09-09T23:00:23.389Z,100067.13
2022-09-09T23:02:53.361Z,100065.22
2022-09-09T23:05:25.044Z,100064.59
2022-09-09T23:07:58.510Z,100063.53
2022-09-09T23:10:32.139Z,100067.25
2022-09-09T23:13:02.077Z,100067.38
2022-09-09T23:15:31.835Z,100070.13
2022-09-09T23:18:01.459Z,100069.41
2022-09-09T23:20:32.202Z,100065.78
2022-09-09T23:23:04.363Z,100072.91
2022-09-09T23:25:33.890Z,100065.53
2022-09-09T23:28:03.550Z,100065.53
2022-09-09T23:30:33.378Z,100065.66
2022-09-09T23:33:02.918Z,100065.53
2022-09-09T23:35:32.961Z,100071.84
2022-09-09T23:38:05.153Z,100069.06
2022-09-09T23:40:34.672Z,100077.75
2022-09-09T23:43:06.320Z,100075.09
2022-09-09T23:45:35.899Z,100074.03
2022-09-09T23:48:05.908Z,100075.00
2022-09-09T23:50:35.527Z,100073.94
2022-09-09T23:53:08.532Z,100071.50
2022-09-09T23:55:38.364Z,100068.84
2022-09-09T23:58:08.090Z,100074.03
